createdAt,value
2022-09-04T00:01:54.694Z,19.33
2022-09-04T00:04:43.376Z,18.00
2022-09-04T00:07:57.624Z,18.33
2022-09-04T00:10:43.034Z,19.00
2022-09-04T00:13:45.595Z,19.33
2022-09-04T00:17:08.539Z,16.00
2022-09-04T00:19:56.506Z,18.00
2022-09-04T00:22:56.210Z,18.67
2022-09-04T00:26:12.386Z,19.00
2022-09-04T00:28:54.357Z,20.00
2022-09-04T00:31:48.959Z,16.00
2022-09-04T00:35:11.520Z,19.00
2022-09-04T00:38:02.379Z,20.33
2022-09-04T00:40:56.653Z,19.50
2022-09-04T00:44:28.521Z,19.00
2022-09-04T00:47:27.725Z,20.67
2022-09-04T00:50:52.821Z,18.67
2022-09-04T00:54:07.404Z,17.00
2022-09-04T00:57:30.312Z,17.33
2022-09-04T01:00:19.955Z,18.00
2022-09-04T01:03:07.670Z,17.67
2022-09-04T01:06:01.339Z,21.00
2022-09-04T01:09:11.140Z,18.50
2022-09-04T01:12:09.709Z,17.00
2022-09-04T01:15:15.669Z,20.00
2022-09-04T01:18:29.893Z,19.00
2022-09-04T01:21:31.135Z,19.33
2022-09-04T01:24:53.044Z,17.67
2022-09-04T01:27:45.735Z,16.50
2022-09-04T01:30:22.517Z,17.00
2022-09-04T01:33:25.907Z,17.67
2022-09-04T01:37:02.705Z,18.67
2022-09-04T01:39:35.310Z,17.00
2022-09-04T01:42:23.027Z,20.00
2022-09-04T01:44:51.689Z,19.67
2022-09-04T01:47:43.706Z,17.00
2022-09-04T01:50:24.863Z,20.00
2022-09-04T01:53:26.919Z,19.33
2022-09-04T01:56:24.692Z,20.33
2022-09-04T01:59:53.893Z,21.00
2022-09-04T02:02:41.366Z,18.67
2022-09-04T02:05:37.704Z,21.00
2022-09-04T02:09:00.159Z,21.00
2022-09-04T02:11:33.019Z,21.00
2022-09-04T02:14:24.003Z,20.00
2022-09-04T02:17:21.306Z,21.00
2022-09-04T02:20:12.691Z,20.33
2022-09-04T02:23:05.303Z,21.00
2022-09-04T02:25:53.984Z,20.00
2022-09-04T02:28:51.513Z,19.00
2022-09-04T02:31:55.162Z,18.67
2022-09-04T02:34:34.014Z,20.33
2022-09-04T02:37:46.023Z,19.67
2022-09-04T02:40:29.446Z,20.67
2022-09-04T02:43:35.709Z,21.33
2022-09-04T02:47:05.385Z,21.33
2022-09-04T02:49:59.638Z,21.00
2022-09-04T02:52:52.551Z,22.00
2022-09-04T02:56:25.570Z,21.00
2022-09-04T02:59:50.332Z,20.33
2022-09-04T03:02:37.080Z,20.00
2022-09-04T03:05:25.751Z,19.00
2022-09-04T03:08:47.448Z,18.00
2022-09-04T03:11:47.140Z,17.00
2022-09-04T03:14:58.982Z,16.67
2022-09-04T03:18:01.976Z,14.67
2022-09-04T03:20:51.908Z,16.00
2022-09-04T03:24:00.264Z,16.00
2022-09-04T03:26:42.554Z,14.00
2022-09-04T03:29:34.683Z,16.50
2022-09-04T03:32:29.784Z,17.00
2022-09-04T03:35:36.224Z,15.00
2022-09-04T03:38:37.729Z,14.00
2022-09-04T03:41:54.101Z,15.00
2022-09-04T03:44:39.499Z,13.00
2022-09-04T03:48:12.872Z,10.50
2022-09-04T03:52:02.153Z,12.00
2022-09-04T03:54:55.074Z,11.00
2022-09-04T03:57:56.633Z,10.50
2022-09-04T04:00:25.625Z,11.33
2022-09-04T04:03:41.735Z,11.00
2022-09-04T04:06:37.087Z,10.00
2022-09-04T04:09:36.041Z,9.00
2022-09-04T04:12:46.790Z,9.00
2022-09-04T04:15:37.563Z,6.00
2022-09-04T04:18:39.687Z,9.33
2022-09-04T04:21:33.756Z,8.67
2022-09-04T04:24:30.611Z,10.00
2022-09-04T04:27:08.435Z,11.00
2022-09-04T04:29:52.209Z,10.00
2022-09-04T04:32:44.189Z,11.00
2022-09-04T04:35:55.979Z,11.00
2022-09-04T04:39:11.939Z,9.00
2022-09-04T04:42:09.399Z,9.33
2022-09-04T04:45:28.205Z,11.50
2022-09-04T04:48:41.546Z,9.33
2022-09-04T04:51:40.790Z,9.00
2022-09-04T04:54:42.693Z,10.00
2022-09-04T04:58:38.681Z,7.67
2022-09-04T05:02:03.691Z,9.00
2022-09-04T05:05:18.072Z,7.00
2022-09-04T05:08:09.983Z,9.00
2022-09-04T05:11:24.228Z,8.33
2022-09-04T05:15:20.623Z,8.00
2022-09-04T05:18:04.710Z,7.00
2022-09-04T05:21:17.302Z,7.00
2022-09-04T05:24:04.676Z,5.00
2022-09-04T05:27:07.963Z,6.14
2022-09-04T05:29:51.542Z,5.00
2022-09-04T05:32:59.251Z,4.00
2022-09-04T05:35:45.913Z,6.00
2022-09-04T05:38:47.212Z,6.00
2022-09-04T05:42:06.566Z,6.00
2022-09-04T05:44:50.348Z,5.50
2022-09-04T05:47:49.194Z,6.00
2022-09-04T05:50:54.195Z,6.00
2022-09-04T05:53:40.647Z,6.00
2022-09-04T05:56:45.108Z,5.00
2022-09-04T05:59:57.078Z,4.50
2022-09-04T06:03:00.979Z,5.50
2022-09-04T06:05:58.604Z,3.00
2022-09-04T06:08:54.719Z,4.71
2022-09-04T06:12:28.414Z,6.00
2022-09-04T06:15:34.872Z,6.33
2022-09-04T06:18:37.635Z,6.60
2022-09-04T06:21:46.959Z,6.00
2022-09-04T06:24:54.383Z,6.00
2022-09-04T06:27:37.631Z,7.00
2022-09-04T06:30:12.404Z,6.20
2022-09-04T06:33:13.677Z,6.00
2022-09-04T06:36:52.770Z,6.00
2022-09-04T06:39:44.186Z,6.00
2022-09-04T06:42:53.004Z,6.80
2022-09-04T06:46:16.210Z,6.00
2022-09-04T06:48:57.373Z,5.60
2022-09-04T06:52:03.367Z,6.00
2022-09-04T06:55:16.644Z,7.40
2022-09-04T06:58:25.511Z,7.00
2022-09-04T07:02:12.223Z,6.80
2022-09-04T07:05:50.849Z,7.00
2022-09-04T07:08:43.211Z,7.00
2022-09-04T07:11:17.005Z,9.00
2022-09-04T07:14:16.554Z,11.00
2022-09-04T07:17:28.292Z,9.00
2022-09-04T07:20:22.525Z,8.00
2022-09-04T07:23:38.963Z,9.00
2022-09-04T07:26:39.978Z,10.00
2022-09-04T07:29:25.820Z,7.00
2022-09-04T07:32:05.818Z,8.00
2022-09-04T07:34:56.439Z,8.00
2022-09-04T07:37:58.791Z,9.00
2022-09-04T07:41:40.731Z,10.00
2022-09-04T07:44:50.613Z,9.00
2022-09-04T07:47:37.106Z,8.80
2022-09-04T07:50:17.859Z,9.00
2022-09-04T07:53:19.987Z,8.33
2022-09-04T07:56:45.439Z,8.00
2022-09-04T07:59:25.375Z,11.00
2022-09-04T08:02:33.797Z,11.67
2022-09-04T08:05:34.782Z,12.00
2022-09-04T08:08:59.787Z,11.00
2022-09-04T08:11:45.664Z,9.33
2022-09-04T08:14:42.631Z,9.00
2022-09-04T08:18:02.209Z,10.00
2022-09-04T08:20:52.921Z,9.00
2022-09-04T08:24:05.878Z,10.00
2022-09-04T08:27:23.559Z,12.67
2022-09-04T08:30:08.887Z,10.00
2022-09-04T08:33:24.288Z,8.67
2022-09-04T08:36:21.903Z,8.00
2022-09-04T08:39:35.915Z,7.00
2022-09-04T08:42:29.696Z,8.00
2022-09-04T08:45:32.758Z,9.00
2022-09-04T08:49:07.762Z,10.00
2022-09-04T08:52:31.656Z,9.33
2022-09-04T08:56:06.774Z,9.00
2022-09-04T08:58:57.014Z,10.00
2022-09-04T09:02:04.258Z,8.00
2022-09-04T09:05:29.258Z,10.00
2022-09-04T09:09:01.944Z,9.00
2022-09-04T09:11:54.155Z,8.67
2022-09-04T09:15:11.091Z,9.00
2022-09-04T09:17:57.924Z,11.00
2022-09-04T09:21:11.641Z,10.33
2022-09-04T09:24:40.071Z,9.67
2022-09-04T09:28:04.759Z,9.67
2022-09-04T09:31:27.927Z,8.33
2022-09-04T09:34:36.218Z,8.33
2022-09-04T09:37:23.565Z,9.67
2022-09-04T09:40:37.073Z,8.33
2022-09-04T09:43:42.247Z,10.00
2022-09-04T09:47:02.293Z,7.67
2022-09-04T09:50:03.890Z,10.00
2022-09-04T09:53:06.166Z,11.33
2022-09-04T09:56:19.268Z,11.00
2022-09-04T09:59:21.288Z,9.33
2022-09-04T10:02:08.677Z,9.00
2022-09-04T10:05:41.403Z,9.33
2022-09-04T10:08:46.865Z,12.00
2022-09-04T10:11:41.764Z,9.00
2022-09-04T10:14:57.896Z,9.33
2022-09-04T10:18:13.784Z,10.00
2022-09-04T10:21:20.969Z,9.00
2022-09-04T10:24:12.628Z,11.00
2022-09-04T10:27:30.425Z,10.00
2022-09-04T10:30:22.721Z,9.00
2022-09-04T10:33:27.299Z,9.67
2022-09-04T10:36:31.074Z,9.00
2022-09-04T10:39:55.372Z,10.00
2022-09-04T10:42:57.897Z,10.00
2022-09-04T10:45:41.910Z,8.00
2022-09-04T10:49:11.147Z,9.00
2022-09-04T10:52:30.927Z,9.00
2022-09-04T10:55:57.829Z,9.33
2022-09-04T10:59:33.433Z,10.00
2022-09-04T11:02:50.878Z,10.00
2022-09-04T11:06:02.840Z,9.33
2022-09-04T11:09:03.811Z,9.00
2022-09-04T11:11:59.188Z,9.00
2022-09-04T11:15:15.557Z,9.00
2022-09-04T11:18:14.246Z,10.00
2022-09-04T11:21:33.838Z,10.00
2022-09-04T11:24:48.583Z,10.00
2022-09-04T11:28:13.823Z,9.33
2022-09-04T11:31:35.225Z,9.00
2022-09-04T11:34:50.473Z,6.00
2022-09-04T11:37:36.831Z,12.00
2022-09-04T11:40:17.307Z,14.00
2022-09-04T11:43:49.018Z,10.67
2022-09-04T11:47:01.824Z,11.33
2022-09-04T11:49:57.452Z,11.00
2022-09-04T11:53:01.307Z,10.00
2022-09-04T11:56:40.645Z,11.33
2022-09-04T11:59:31.894Z,6.00
2022-09-04T12:02:30.825Z,11.67
2022-09-04T12:05:44.461Z,10.33
2022-09-04T12:08:49.132Z,10.33
2022-09-04T12:12:21.339Z,11.00
2022-09-04T12:15:23.437Z,14.00
2022-09-04T12:18:37.110Z,10.33
2022-09-04T12:21:43.151Z,12.00
2022-09-04T12:24:52.641Z,9.67
2022-09-04T12:28:24.269Z,10.00
2022-09-04T12:31:01.540Z,11.67
2022-09-04T12:33:42.945Z,10.33
2022-09-04T12:37:06.985Z,11.00
2022-09-04T12:40:12.636Z,10.00
2022-09-04T12:43:09.543Z,11.00
2022-09-04T12:46:06.109Z,9.67
2022-09-04T12:48:54.864Z,9.00
2022-09-04T12:51:26.699Z,7.20
2022-09-04T12:54:25.181Z,9.33
2022-09-04T12:57:24.639Z,9.00
2022-09-04T13:00:12.802Z,11.00
2022-09-04T13:03:22.372Z,11.00
2022-09-04T13:06:34.868Z,10.00
2022-09-04T13:09:33.272Z,11.00
2022-09-04T13:13:06.412Z,9.00
2022-09-04T13:15:40.028Z,10.67
2022-09-04T13:18:22.655Z,10.67
2022-09-04T13:21:26.555Z,8.67
2022-09-04T13:24:44.709Z,10.33
2022-09-04T13:27:38.987Z,9.33
2022-09-04T13:30:22.115Z,10.67
2022-09-04T13:33:27.510Z,8.67
2022-09-04T13:36:38.374Z,10.33
2022-09-04T13:39:28.055Z,11.00
2022-09-04T13:42:10.174Z,10.00
2022-09-04T13:45:23.864Z,9.67
2022-09-04T13:48:40.812Z,9.00
2022-09-04T13:51:52.217Z,12.00
2022-09-04T13:54:33.947Z,11.00
2022-09-04T13:57:21.259Z,8.33
2022-09-04T13:59:51.622Z,10.00
2022-09-04T14:02:25.783Z,10.00
2022-09-04T14:05:07.262Z,10.67
2022-09-04T14:07:50.575Z,10.00
2022-09-04T14:10:48.599Z,10.00
2022-09-04T14:14:03.462Z,9.33
2022-09-04T14:16:36.767Z,10.00
2022-09-04T14:19:31.298Z,7.00
2022-09-04T14:22:41.610Z,9.67
2022-09-04T14:25:30.401Z,8.67
2022-09-04T14:28:46.887Z,10.00
2022-09-04T14:31:49.542Z,8.67
2022-09-04T14:34:50.386Z,9.00
2022-09-04T14:37:54.271Z,11.00
2022-09-04T14:40:31.170Z,9.67
2022-09-04T14:43:51.238Z,10.00
2022-09-04T14:47:26.174Z,12.00
2022-09-04T14:49:56.304Z,9.33
2022-09-04T14:52:39.224Z,9.67
2022-09-04T14:55:44.429Z,10.67
2022-09-04T14:58:31.362Z,11.00
2022-09-04T15:01:10.798Z,10.00
2022-09-04T15:04:13.850Z,11.67
2022-09-04T15:07:11.171Z,10.67
2022-09-04T15:09:46.362Z,10.67
2022-09-04T15:12:28.203Z,10.33
2022-09-04T15:15:40.544Z,10.00
2022-09-04T15:18:25.718Z,10.33
2022-09-04T15:21:09.709Z,8.67
2022-09-04T15:23:50.489Z,8.00
2022-09-04T15:26:34.030Z,9.67
2022-09-04T15:29:38.335Z,10.00
2022-09-04T15:32:14.341Z,11.00
2022-09-04T15:34:43.203Z,10.00
2022-09-04T15:37:25.062Z,10.00
2022-09-04T15:40:32.253Z,10.00
2022-09-04T15:43:15.525Z,10.00
2022-09-04T15:45:53.927Z,8.67
2022-09-04T15:48:56.022Z,10.67
2022-09-04T15:52:10.573Z,10.00
2022-09-04T15:54:41.920Z,10.00
2022-09-04T15:57:33.156Z,9.00
2022-09-04T16:00:16.465Z,9.67
2022-09-04T16:03:07.145Z,11.33
2022-09-04T16:05:59.812Z,11.00
2022-09-04T16:08:46.593Z,10.00
2022-09-04T16:11:23.175Z,11.00
2022-09-04T16:13:58.115Z,10.00
2022-09-04T16:16:51.290Z,10.00
2022-09-04T16:19:47.420Z,10.00
2022-09-04T16:22:36.506Z,9.00
2022-09-04T16:25:24.218Z,13.67
2022-09-04T16:28:08.209Z,18.00
2022-09-04T16:30:58.163Z,17.50
2022-09-04T16:33:44.676Z,12.50
2022-09-04T16:36:29.566Z,10.33
2022-09-04T16:39:26.484Z,12.00
2022-09-04T16:42:29.253Z,11.00
2022-09-04T16:45:25.504Z,13.67
2022-09-04T16:48:33.349Z,14.00
2022-09-04T16:51:40.232Z,28.33
2022-09-04T16:54:47.453Z,24.75
2022-09-04T16:57:18.733Z,16.00
2022-09-04T17:00:02.701Z,22.50
2022-09-04T17:03:06.998Z,23.00
2022-09-04T17:05:49.498Z,17.00
2022-09-04T17:08:37.295Z,13.00
2022-09-04T17:11:55.525Z,12.50
2022-09-04T17:14:55.894Z,12.67
2022-09-04T17:17:31.458Z,11.00
2022-09-04T17:22:29.555Z,10.50
2022-09-04T17:28:56.808Z,11.50
2022-09-04T17:29:15.595Z,13.00
2022-09-04T17:30:02.163Z,17.00
2022-09-04T17:37:06.076Z,11.50
2022-09-04T17:40:49.124Z,11.33
2022-09-04T17:40:57.148Z,12.00
2022-09-04T17:42:34.587Z,12.00
2022-09-04T17:45:45.897Z,13.50
2022-09-04T17:48:41.267Z,14.00
2022-09-04T17:51:25.974Z,14.33
2022-09-04T17:54:02.093Z,12.67
2022-09-04T17:56:43.773Z,12.50
2022-09-04T17:59:45.798Z,9.67
2022-09-04T18:03:15.737Z,13.00
2022-09-04T18:05:53.929Z,13.00
2022-09-04T18:08:55.787Z,13.00
2022-09-04T18:12:31.463Z,15.00
2022-09-04T18:15:33.764Z,11.50
2022-09-04T18:18:37.388Z,11.00
2022-09-04T18:21:40.018Z,11.00
2022-09-04T18:24:55.436Z,11.33
2022-09-04T18:28:06.134Z,12.00
2022-09-04T18:37:25.848Z,11.50
2022-09-04T18:37:26.563Z,11.00
2022-09-04T18:37:47.108Z,11.00
2022-09-04T18:42:29.106Z,12.00
2022-09-04T18:50:20.994Z,13.33
2022-09-04T18:50:35.291Z,24.00
2022-09-04T18:50:45.518Z,26.00
2022-09-04T18:52:30.250Z,20.00
2022-09-04T18:55:14.859Z,16.33
2022-09-04T18:58:28.465Z,12.50
2022-09-04T19:01:38.099Z,16.00
2022-09-04T19:04:34.162Z,14.00
2022-09-04T19:07:49.556Z,14.00
2022-09-04T19:10:44.913Z,14.00
2022-09-04T19:13:39.679Z,13.00
2022-09-04T19:16:26.175Z,14.00
2022-09-04T19:19:40.327Z,12.00
2022-09-04T19:22:39.323Z,10.33
2022-09-04T19:25:35.465Z,12.50
2022-09-04T19:28:39.698Z,12.00
2022-09-04T19:31:39.964Z,11.00
2022-09-04T19:34:19.774Z,11.33
2022-09-04T19:37:39.871Z,11.33
2022-09-04T19:45:53.655Z,10.33
2022-09-04T19:46:16.921Z,10.67
2022-09-04T19:46:52.027Z,12.00
2022-09-04T19:53:19.805Z,10.33
2022-09-04T19:53:34.101Z,11.00
2022-09-04T19:56:31.462Z,11.33
2022-09-04T19:59:18.490Z,11.00
2022-09-04T20:02:23.986Z,12.00
2022-09-04T20:05:01.480Z,10.33
2022-09-04T20:08:03.247Z,10.67
2022-09-04T20:11:34.581Z,11.00
2022-09-04T20:14:50.336Z,11.00
2022-09-04T20:17:41.394Z,11.00
2022-09-04T20:20:32.709Z,12.00
2022-09-04T20:23:34.493Z,10.67
2022-09-04T20:26:27.072Z,12.00
2022-09-04T20:29:31.070Z,12.00
2022-09-04T20:32:34.284Z,12.00
2022-09-04T20:35:32.868Z,12.00
2022-09-04T20:38:40.028Z,11.67
2022-09-04T20:41:35.677Z,12.00
2022-09-04T20:47:59.550Z,10.67
2022-09-04T20:52:41.314Z,12.50
2022-09-04T20:52:51.516Z,12.00
2022-09-04T20:54:35.530Z,11.33
2022-09-04T21:02:50.641Z,12.50
2022-09-04T21:03:18.527Z,13.00
2022-09-04T21:04:42.646Z,11.00
2022-09-04T21:07:33.296Z,14.00
2022-09-04T21:10:29.064Z,11.33
2022-09-04T21:13:20.276Z,13.00
2022-09-04T21:16:24.603Z,14.00
2022-09-04T21:19:27.791Z,11.50
2022-09-04T21:22:34.091Z,14.00
2022-09-04T21:25:31.711Z,14.00
2022-09-04T21:28:53.307Z,14.00
2022-09-04T21:31:44.686Z,12.33
2022-09-04T21:34:54.092Z,11.67
2022-09-04T21:38:14.208Z,11.50
2022-09-04T21:41:09.372Z,12.00
2022-09-04T21:44:27.517Z,14.00
2022-09-04T21:47:11.340Z,12.50
2022-09-04T21:50:38.645Z,13.00
2022-09-04T21:53:46.766Z,14.00
2022-09-04T22:02:25.256Z,16.50
2022-09-04T22:02:39.331Z,12.00
2022-09-04T22:03:56.061Z,15.00
2022-09-04T22:10:08.390Z,14.00
2022-09-04T22:13:28.700Z,13.00
2022-09-04T22:13:48.169Z,14.00
2022-09-04T22:17:27.119Z,15.33
2022-09-04T22:20:49.841Z,15.00
2022-09-04T22:23:51.706Z,16.00
2022-09-04T22:27:45.543Z,13.00
2022-09-04T22:30:24.027Z,15.00
2022-09-04T22:33:32.631Z,16.00
2022-09-04T22:36:59.219Z,17.00
2022-09-04T22:40:07.263Z,15.00
2022-09-04T22:42:42.203Z,14.67
2022-09-04T22:45:52.833Z,12.00
2022-09-04T22:49:12.345Z,15.00
2022-09-04T22:52:57.994Z,16.00
2022-09-04T22:56:22.821Z,14.50
2022-09-04T22:59:25.690Z,15.00
2022-09-04T23:02:45.976Z,15.00
2022-09-04T23:05:42.758Z,14.33
2022-09-04T23:13:42.654Z,13.67
2022-09-04T23:13:56.569Z,13.00
2022-09-04T23:15:59.443Z,16.00
2022-09-04T23:24:54.885Z,14.33
2022-09-04T23:26:41.493Z,15.50
2022-09-04T23:26:47.172Z,14.50
2022-09-04T23:28:57.518Z,12.00
2022-09-04T23:32:16.612Z,15.00
2022-09-04T23:36:33.415Z,14.00
2022-09-04T23:40:19.003Z,14.00
2022-09-04T23:43:08.124Z,13.00
2022-09-04T23:46:15.795Z,14.00
2022-09-04T23:48:57.250Z,13.00
2022-09-04T23:52:19.087Z,13.50
2022-09-04T23:55:12.291Z,17.00
2022-09-04T23:58:49.431Z,14.00
